sensor_id;sensor_type;location;lat;lon;timestamp;temperature;humidity
23703;DHT22;12030;50.376;8.762;2022-07-05T00:00:00;14.00;99.90
23703;DHT22;12030;50.376;8.762;2022-07-05T00:02:26;14.00;99.90
23703;DHT22;12030;50.376;8.762;2022-07-05T00:04:51;14.00;99.90
23703;DHT22;12030;50.376;8.762;2022-07-05T00:07:18;14.00;99.90
23703;DHT22;12030;50.376;8.762;2022-07-05T00:09:49;14.00;99.90
23703;DHT22;12030;50.376;8.762;2022-07-05T00:12:15;13.90;99.90
23703;DHT22;12030;50.376;8.762;2022-07-05T00:14:42;13.90;99.90
23703;DHT22;12030;50.376;8.762;2022-07-05T00:17:08;13.90;99.90
23703;DHT22;12030;50.376;8.762;2022-07-05T00:19:34;13.90;99.90
23703;DHT22;12030;50.376;8.762;2022-07-05T00:21:59;13.90;99.90
23703;DHT22;12030;50.376;8.762;2022-07-05T00:24:26;13.90;99.90
23703;DHT22;12030;50.376;8.762;2022-07-05T00:26:51;13.90;99.90
23703;DHT22;12030;50.376;8.762;2022-07-05T00:29:17;13.90;99.90
23703;DHT22;12030;50.376;8.762;2022-07-05T00:31:42;13.90;99.90
23703;DHT22;12030;50.376;8.762;2022-07-05T00:34:08;13.90;99.90
23703;DHT22;12030;50.376;8.762;2022-07-05T00:36:34;13.80;99.90
23703;DHT22;12030;50.376;8.762;2022-07-05T00:38:59;13.90;99.90
23703;DHT22;12030;50.376;8.762;2022-07-05T00:41:25;13.90;99.90
23703;DHT22;12030;50.376;8.762;2022-07-05T00:43:59;13.90;99.90
23703;DHT22;12030;50.376;8.762;2022-07-05T00:46:26;14.00;99.90
23703;DHT22;12030;50.376;8.762;2022-07-05T00:48:52;14.10;99.90
23703;DHT22;12030;50.376;8.762;2022-07-05T00:51:18;14.20;99.90
23703;DHT22;12030;50.376;8.762;2022-07-05T00:53:44;14.20;99.90
23703;DHT22;12030;50.376;8.762;2022-07-05T00:56:11;14.20;99.90
23703;DHT22;12030;50.376;8.762;2022-07-05T00:58:37;14.20;99.90
23703;DHT22;12030;50.376;8.762;2022-07-05T01:01:05;14.20;99.90
23703;DHT22;12030;50.376;8.762;2022-07-05T01:03:31;14.30;99.90
23703;DHT22;12030;50.376;8.762;2022-07-05T01:05:57;14.30;99.90
23703;DHT22;12030;50.376;8.762;2022-07-05T01:08:24;14.30;99.90
23703;DHT22;12030;50.376;8.762;2022-07-05T01:10:50;14.30;99.90
23703;DHT22;12030;50.376;8.762;2022-07-05T01:13:17;14.40;99.90
23703;DHT22;12030;50.376;8.762;2022-07-05T01:15:43;14.40;99.90
23703;DHT22;12030;50.376;8.762;2022-07-05T01:18:08;14.40;99.90
23703;DHT22;12030;50.376;8.762;2022-07-05T01:20:35;14.30;99.90
23703;DHT22;12030;50.376;8.762;2022-07-05T01:23:02;14.20;99.90
23703;DHT22;12030;50.376;8.762;2022-07-05T01:25:28;14.20;99.90
23703;DHT22;12030;50.376;8.762;2022-07-05T01:27:56;14.10;99.90
23703;DHT22;12030;50.376;8.762;2022-07-05T01:30:22;14.10;99.90
23703;DHT22;12030;50.376;8.762;2022-07-05T01:32:48;14.10;99.90
23703;DHT22;12030;50.376;8.762;2022-07-05T01:35:15;14.00;99.90
23703;DHT22;12030;50.376;8.762;2022-07-05T01:37:49;13.90;99.90
23703;DHT22;12030;50.376;8.762;2022-07-05T01:40:15;13.90;99.90
23703;DHT22;12030;50.376;8.762;2022-07-05T01:42:41;13.80;99.90
23703;DHT22;12030;50.376;8.762;2022-07-05T01:45:07;13.90;99.90
23703;DHT22;12030;50.376;8.762;2022-07-05T01:47:36;13.90;99.90
23703;DHT22;12030;50.376;8.762;2022-07-05T01:50:05;13.90;99.90
23703;DHT22;12030;50.376;8.762;2022-07-05T01:52:32;13.90;99.90
23703;DHT22;12030;50.376;8.762;2022-07-05T01:54:59;13.90;99.90
23703;DHT22;12030;50.376;8.762;2022-07-05T01:57:26;13.90;99.90
23703;DHT22;12030;50.376;8.762;2022-07-05T01:59:51;13.90;99.90
23703;DHT22;12030;50.376;8.762;2022-07-05T02:02:17;13.90;99.90
23703;DHT22;12030;50.376;8.762;2022-07-05T02:04:43;13.90;99.90
23703;DHT22;12030;50.376;8.762;2022-07-05T02:07:09;13.90;99.90
23703;DHT22;12030;50.376;8.762;2022-07-05T02:09:35;13.80;99.90
23703;DHT22;12030;50.376;8.762;2022-07-05T02:12:02;13.80;99.90
23703;DHT22;12030;50.376;8.762;2022-07-05T02:14:28;13.80;99.90
23703;DHT22;12030;50.376;8.762;2022-07-05T02:16:54;13.90;99.90
23703;DHT22;12030;50.376;8.762;2022-07-05T02:19:19;13.80;99.90
23703;DHT22;12030;50.376;8.762;2022-07-05T02:21:45;13.80;99.90
23703;DHT22;12030;50.376;8.762;2022-07-05T02:24:10;13.90;99.90
23703;DHT22;12030;50.376;8.762;2022-07-05T02:26:36;13.90;99.90
23703;DHT22;12030;50.376;8.762;2022-07-05T02:29:03;13.80;99.90
23703;DHT22;12030;50.376;8.762;2022-07-05T02:31:29;13.90;99.90
23703;DHT22;12030;50.376;8.762;2022-07-05T02:33:55;13.90;99.90
23703;DHT22;12030;50.376;8.762;2022-07-05T02:36:20;13.80;99.90
23703;DHT22;12030;50.376;8.762;2022-07-05T02:38:46;13.80;99.90
23703;DHT22;12030;50.376;8.762;2022-07-05T02:41:12;13.80;99.90
23703;DHT22;12030;50.376;8.762;2022-07-05T02:43:38;13.80;99.90
23703;DHT22;12030;50.376;8.762;2022-07-05T02:46:05;13.80;99.90
23703;DHT22;12030;50.376;8.762;2022-07-05T02:55:03;13.50;99.90
23703;DHT22;12030;50.376;8.762;2022-07-05T02:57:29;13.40;99.90
23703;DHT22;12030;50.376;8.762;2022-07-05T02:59:56;13.40;99.90
23703;DHT22;12030;50.376;8.762;2022-07-05T03:02:22;13.30;99.90
23703;DHT22;12030;50.376;8.762;2022-07-05T03:04:48;13.30;99.90
23703;DHT22;12030;50.376;8.762;2022-07-05T03:07:13;13.20;99.90
23703;DHT22;12030;50.376;8.762;2022-07-05T03:09:39;13.20;99.90
23703;DHT22;12030;50.376;8.762;2022-07-05T03:12:05;13.20;99.90
23703;DHT22;12030;50.376;8.762;2022-07-05T03:14:31;13.10;99.90
23703;DHT22;12030;50.376;8.762;2022-07-05T03:16:56;13.00;99.90
23703;DHT22;12030;50.376;8.762;2022-07-05T03:19:22;13.00;99.90
23703;DHT22;12030;50.376;8.762;2022-07-05T03:21:47;13.00;99.90
23703;DHT22;12030;50.376;8.762;2022-07-05T03:24:13;13.00;99.90
23703;DHT22;12030;50.376;8.762;2022-07-05T03:26:39;13.00;99.90
23703;DHT22;12030;50.376;8.762;2022-07-05T03:29:04;13.00;99.90
23703;DHT22;12030;50.376;8.762;2022-07-05T03:31:30;13.10;99.90
23703;DHT22;12030;50.376;8.762;2022-07-05T03:33:55;16.00;99.90
23703;DHT22;12030;50.376;8.762;2022-07-05T03:36:22;13.10;99.90
23703;DHT22;12030;50.376;8.762;2022-07-05T03:38:47;13.20;99.90
23703;DHT22;12030;50.376;8.762;2022-07-05T03:41:13;13.20;99.90
23703;DHT22;12030;50.376;8.762;2022-07-05T03:43:39;13.20;99.90
23703;DHT22;12030;50.376;8.762;2022-07-05T03:46:04;13.20;99.90
23703;DHT22;12030;50.376;8.762;2022-07-05T03:48:30;13.20;99.90
23703;DHT22;12030;50.376;8.762;2022-07-05T03:50:55;13.20;99.90
23703;DHT22;12030;50.376;8.762;2022-07-05T03:53:21;13.10;99.90
23703;DHT22;12030;50.376;8.762;2022-07-05T03:55:46;13.10;99.90
23703;DHT22;12030;50.376;8.762;2022-07-05T03:58:12;13.20;99.90
23703;DHT22;12030;50.376;8.762;2022-07-05T04:00:37;13.20;99.90
23703;DHT22;12030;50.376;8.762;2022-07-05T04:03:03;13.10;99.90
23703;DHT22;12030;50.376;8.762;2022-07-05T04:05:28;13.20;99.90
23703;DHT22;12030;50.376;8.762;2022-07-05T04:07:55;13.30;99.90
23703;DHT22;12030;50.376;8.762;2022-07-05T04:10:21;13.40;99.90
23703;DHT22;12030;50.376;8.762;2022-07-05T04:12:47;13.40;99.90
23703;DHT22;12030;50.376;8.762;2022-07-05T04:15:13;13.30;99.90
23703;DHT22;12030;50.376;8.762;2022-07-05T04:17:55;13.40;99.90
23703;DHT22;12030;50.376;8.762;2022-07-05T04:20:22;13.30;99.90
23703;DHT22;12030;50.376;8.762;2022-07-05T04:22:51;13.30;99.90
23703;DHT22;12030;50.376;8.762;2022-07-05T04:25:18;13.40;99.90
23703;DHT22;12030;50.376;8.762;2022-07-05T04:27:48;13.40;99.90
23703;DHT22;12030;50.376;8.762;2022-07-05T04:30:15;13.40;99.90
23703;DHT22;12030;50.376;8.762;2022-07-05T04:32:40;13.50;99.90
23703;DHT22;12030;50.376;8.762;2022-07-05T04:35:06;13.50;99.90
23703;DHT22;12030;50.376;8.762;2022-07-05T04:37:32;13.60;99.90
23703;DHT22;12030;50.376;8.762;2022-07-05T04:39:58;13.60;99.90
23703;DHT22;12030;50.376;8.762;2022-07-05T04:42:23;13.60;99.90
23703;DHT22;12030;50.376;8.762;2022-07-05T04:44:49;13.60;99.90
23703;DHT22;12030;50.376;8.762;2022-07-05T04:47:14;13.70;99.90
23703;DHT22;12030;50.376;8.762;2022-07-05T04:49:40;13.80;99.90
23703;DHT22;12030;50.376;8.762;2022-07-05T04:52:06;13.80;99.90
23703;DHT22;12030;50.376;8.762;2022-07-05T04:54:31;13.90;99.90
23703;DHT22;12030;50.376;8.762;2022-07-05T04:56:57;14.00;99.90
23703;DHT22;12030;50.376;8.762;2022-07-05T04:59:22;14.10;99.90
23703;DHT22;12030;50.376;8.762;2022-07-05T05:01:48;14.20;99.90
23703;DHT22;12030;50.376;8.762;2022-07-05T05:04:13;14.30;99.90
23703;DHT22;12030;50.376;8.762;2022-07-05T05:06:39;14.40;99.90
23703;DHT22;12030;50.376;8.762;2022-07-05T05:09:04;14.50;99.90
23703;DHT22;12030;50.376;8.762;2022-07-05T05:11:30;14.60;99.90
23703;DHT22;12030;50.376;8.762;2022-07-05T05:13:55;14.70;99.90
23703;DHT22;12030;50.376;8.762;2022-07-05T05:16:21;14.80;99.90
23703;DHT22;12030;50.376;8.762;2022-07-05T05:18:47;14.90;99.90
23703;DHT22;12030;50.376;8.762;2022-07-05T05:21:12;15.00;99.90
23703;DHT22;12030;50.376;8.762;2022-07-05T05:23:38;15.10;99.90
23703;DHT22;12030;50.376;8.762;2022-07-05T05:26:03;15.20;99.90
23703;DHT22;12030;50.376;8.762;2022-07-05T05:28:29;15.30;99.90
23703;DHT22;12030;50.376;8.762;2022-07-05T05:30:54;15.50;99.90
23703;DHT22;12030;50.376;8.762;2022-07-05T05:33:20;15.60;99.90
23703;DHT22;12030;50.376;8.762;2022-07-05T05:35:46;15.70;99.90
23703;DHT22;12030;50.376;8.762;2022-07-05T05:38:11;15.80;99.90
23703;DHT22;12030;50.376;8.762;2022-07-05T05:40:37;15.90;99.90
23703;DHT22;12030;50.376;8.762;2022-07-05T05:43:12;16.00;99.90
23703;DHT22;12030;50.376;8.762;2022-07-05T05:45:37;16.20;99.90
23703;DHT22;12030;50.376;8.762;2022-07-05T05:48:03;16.30;99.90
23703;DHT22;12030;50.376;8.762;2022-07-05T05:50:36;16.50;99.90
23703;DHT22;12030;50.376;8.762;2022-07-05T05:53:02;16.60;99.90
23703;DHT22;12030;50.376;8.762;2022-07-05T05:55:29;16.70;99.90
23703;DHT22;12030;50.376;8.762;2022-07-05T05:57:55;16.80;99.90
23703;DHT22;12030;50.376;8.762;2022-07-05T06:00:23;17.00;99.90
23703;DHT22;12030;50.376;8.762;2022-07-05T06:02:49;17.10;99.90
23703;DHT22;12030;50.376;8.762;2022-07-05T06:05:15;17.20;99.90
23703;DHT22;12030;50.376;8.762;2022-07-05T06:07:45;17.30;99.90
23703;DHT22;12030;50.376;8.762;2022-07-05T06:10:15;17.30;99.90
23703;DHT22;12030;50.376;8.762;2022-07-05T06:12:40;17.40;99.90
23703;DHT22;12030;50.376;8.762;2022-07-05T06:15:06;17.50;99.90
23703;DHT22;12030;50.376;8.762;2022-07-05T06:17:36;17.60;99.90
23703;DHT22;12030;50.376;8.762;2022-07-05T06:20:05;17.70;99.90
23703;DHT22;12030;50.376;8.762;2022-07-05T06:22:31;17.90;99.90
23703;DHT22;12030;50.376;8.762;2022-07-05T06:24:56;18.00;99.90
23703;DHT22;12030;50.376;8.762;2022-07-05T06:27:22;18.10;99.90
23703;DHT22;12030;50.376;8.762;2022-07-05T06:29:47;18.20;99.90
23703;DHT22;12030;50.376;8.762;2022-07-05T06:32:13;18.40;99.90
23703;DHT22;12030;50.376;8.762;2022-07-05T06:34:38;18.50;99.90
23703;DHT22;12030;50.376;8.762;2022-07-05T06:37:04;18.60;99.90
23703;DHT22;12030;50.376;8.762;2022-07-05T06:39:30;18.70;99.90
23703;DHT22;12030;50.376;8.762;2022-07-05T06:41:55;18.80;99.90
23703;DHT22;12030;50.376;8.762;2022-07-05T06:44:21;18.90;99.90
23703;DHT22;12030;50.376;8.762;2022-07-05T06:46:46;19.00;99.90
23703;DHT22;12030;50.376;8.762;2022-07-05T06:49:12;19.10;99.90
23703;DHT22;12030;50.376;8.762;2022-07-05T06:51:37;19.20;99.90
23703;DHT22;12030;50.376;8.762;2022-07-05T06:54:03;19.30;99.90
23703;DHT22;12030;50.376;8.762;2022-07-05T06:56:28;19.40;99.90
23703;DHT22;12030;50.376;8.762;2022-07-05T06:58:54;19.60;99.90
23703;DHT22;12030;50.376;8.762;2022-07-05T07:01:19;19.70;99.90
23703;DHT22;12030;50.376;8.762;2022-07-05T07:03:45;19.90;99.90
23703;DHT22;12030;50.376;8.762;2022-07-05T07:06:12;19.90;99.90
23703;DHT22;12030;50.376;8.762;2022-07-05T07:08:38;20.00;99.90
23703;DHT22;12030;50.376;8.762;2022-07-05T07:11:22;20.10;99.90
23703;DHT22;12030;50.376;8.762;2022-07-05T07:13:47;20.30;99.90
23703;DHT22;12030;50.376;8.762;2022-07-05T07:16:13;20.30;99.90
23703;DHT22;12030;50.376;8.762;2022-07-05T07:18:38;20.40;99.90
23703;DHT22;12030;50.376;8.762;2022-07-05T07:21:04;20.50;99.90
23703;DHT22;12030;50.376;8.762;2022-07-05T07:23:30;20.70;99.90
23703;DHT22;12030;50.376;8.762;2022-07-05T07:25:56;20.80;99.90
23703;DHT22;12030;50.376;8.762;2022-07-05T07:28:21;20.80;99.90
23703;DHT22;12030;50.376;8.762;2022-07-05T07:30:47;20.90;99.90
23703;DHT22;12030;50.376;8.762;2022-07-05T07:33:12;21.10;99.90
23703;DHT22;12030;50.376;8.762;2022-07-05T07:35:38;21.10;99.70
23703;DHT22;12030;50.376;8.762;2022-07-05T07:38:03;21.20;99.90
23703;DHT22;12030;50.376;8.762;2022-07-05T07:40:29;21.30;99.90
23703;DHT22;12030;50.376;8.762;2022-07-05T07:42:54;21.40;99.90
23703;DHT22;12030;50.376;8.762;2022-07-05T07:45:20;21.50;99.10
23703;DHT22;12030;50.376;8.762;2022-07-05T07:47:45;21.50;98.80
23703;DHT22;12030;50.376;8.762;2022-07-05T07:50:11;21.70;98.90
23703;DHT22;12030;50.376;8.762;2022-07-05T07:52:36;21.70;99.60
23703;DHT22;12030;50.376;8.762;2022-07-05T07:55:04;21.90;99.30
23703;DHT22;12030;50.376;8.762;2022-07-05T07:57:30;22.00;98.30
23703;DHT22;12030;50.376;8.762;2022-07-05T07:59:56;21.90;97.20
23703;DHT22;12030;50.376;8.762;2022-07-05T08:02:22;22.00;98.30
23703;DHT22;12030;50.376;8.762;2022-07-05T08:04:51;22.10;97.80
23703;DHT22;12030;50.376;8.762;2022-07-05T08:07:17;22.20;97.10
23703;DHT22;12030;50.376;8.762;2022-07-05T08:09:44;22.40;97.30
23703;DHT22;12030;50.376;8.762;2022-07-05T08:12:09;22.40;96.60
23703;DHT22;12030;50.376;8.762;2022-07-05T08:14:35;22.50;97.70
23703;DHT22;12030;50.376;8.762;2022-07-05T08:17:00;22.70;97.00
23703;DHT22;12030;50.376;8.762;2022-07-05T08:19:26;22.70;98.00
23703;DHT22;12030;50.376;8.762;2022-07-05T08:22:10;22.90;96.80
23703;DHT22;12030;50.376;8.762;2022-07-05T08:24:38;23.00;96.40
23703;DHT22;12030;50.376;8.762;2022-07-05T08:27:05;23.00;95.10
23703;DHT22;12030;50.376;8.762;2022-07-05T08:29:30;23.20;95.70
23703;DHT22;12030;50.376;8.762;2022-07-05T08:31:56;22.00;95.20
23703;DHT22;12030;50.376;8.762;2022-07-05T08:34:22;23.50;95.20
23703;DHT22;12030;50.376;8.762;2022-07-05T08:36:47;23.60;95.30
23703;DHT22;12030;50.376;8.762;2022-07-05T08:39:14;23.70;94.40
23703;DHT22;12030;50.376;8.762;2022-07-05T08:41:42;23.70;93.50
23703;DHT22;12030;50.376;8.762;2022-07-05T08:44:09;23.70;92.40
23703;DHT22;12030;50.376;8.762;2022-07-05T08:46:38;23.90;92.70
23703;DHT22;12030;50.376;8.762;2022-07-05T08:49:04;24.00;92.40
23703;DHT22;12030;50.376;8.762;2022-07-05T08:51:35;24.10;90.80
23703;DHT22;12030;50.376;8.762;2022-07-05T08:54:02;24.20;90.60
23703;DHT22;12030;50.376;8.762;2022-07-05T08:56:28;24.30;90.70
23703;DHT22;12030;50.376;8.762;2022-07-05T08:58:54;24.50;91.20
23703;DHT22;12030;50.376;8.762;2022-07-05T09:01:20;24.80;92.20
23703;DHT22;12030;50.376;8.762;2022-07-05T09:03:50;24.90;93.60
23703;DHT22;12030;50.376;8.762;2022-07-05T09:06:18;25.00;91.40
23703;DHT22;12030;50.376;8.762;2022-07-05T09:08:45;24.80;90.50
23703;DHT22;12030;50.376;8.762;2022-07-05T09:11:15;24.80;90.60
23703;DHT22;12030;50.376;8.762;2022-07-05T09:13:43;24.80;89.80
23703;DHT22;12030;50.376;8.762;2022-07-05T09:16:09;25.00;91.20
23703;DHT22;12030;50.376;8.762;2022-07-05T09:18:48;25.20;91.60
23703;DHT22;12030;50.376;8.762;2022-07-05T09:21:22;25.10;90.70
23703;DHT22;12030;50.376;8.762;2022-07-05T09:23:59;25.20;90.50
23703;DHT22;12030;50.376;8.762;2022-07-05T09:26:41;25.30;91.20
23703;DHT22;12030;50.376;8.762;2022-07-05T09:29:10;25.00;90.60
23703;DHT22;12030;50.376;8.762;2022-07-05T09:31:38;24.40;90.70
23703;DHT22;12030;50.376;8.762;2022-07-05T09:34:14;24.50;90.80
23703;DHT22;12030;50.376;8.762;2022-07-05T09:39:15;24.90;91.20
23703;DHT22;12030;50.376;8.762;2022-07-05T09:41:41;25.10;91.50
23703;DHT22;12030;50.376;8.762;2022-07-05T09:44:07;25.30;93.10
23703;DHT22;12030;50.376;8.762;2022-07-05T09:46:32;25.60;92.10
23703;DHT22;12030;50.376;8.762;2022-07-05T09:48:58;25.70;89.10
23703;DHT22;12030;50.376;8.762;2022-07-05T09:51:24;25.90;90.40
23703;DHT22;12030;50.376;8.762;2022-07-05T09:53:57;26.00;86.20
23703;DHT22;12030;50.376;8.762;2022-07-05T09:56:24;26.10;88.40
23703;DHT22;12030;50.376;8.762;2022-07-05T09:58:54;25.70;90.00
23703;DHT22;12030;50.376;8.762;2022-07-05T10:01:30;25.20;87.10
23703;DHT22;12030;50.376;8.762;2022-07-05T10:04:00;24.70;89.50
23703;DHT22;12030;50.376;8.762;2022-07-05T10:06:28;25.00;89.30
23703;DHT22;12030;50.376;8.762;2022-07-05T10:08:54;25.40;86.90
23703;DHT22;12030;50.376;8.762;2022-07-05T10:11:21;25.40;85.30
23703;DHT22;12030;50.376;8.762;2022-07-05T10:13:51;25.60;84.90
23703;DHT22;12030;50.376;8.762;2022-07-05T10:16:19;25.90;85.50
23703;DHT22;12030;50.376;8.762;2022-07-05T10:18:50;24.80;83.60
23703;DHT22;12030;50.376;8.762;2022-07-05T10:21:18;24.80;86.70
23703;DHT22;12030;50.376;8.762;2022-07-05T10:23:45;24.90;83.60
23703;DHT22;12030;50.376;8.762;2022-07-05T10:26:12;25.30;82.70
23703;DHT22;12030;50.376;8.762;2022-07-05T10:28:40;25.40;85.50
23703;DHT22;12030;50.376;8.762;2022-07-05T10:31:07;25.60;82.90
23703;DHT22;12030;50.376;8.762;2022-07-05T10:33:35;25.80;83.40
23703;DHT22;12030;50.376;8.762;2022-07-05T10:36:00;25.80;85.70
23703;DHT22;12030;50.376;8.762;2022-07-05T10:38:27;25.90;84.20
23703;DHT22;12030;50.376;8.762;2022-07-05T10:40:55;26.00;82.50
23703;DHT22;12030;50.376;8.762;2022-07-05T10:43:23;26.10;84.20
23703;DHT22;12030;50.376;8.762;2022-07-05T10:45:50;26.20;86.10
23703;DHT22;12030;50.376;8.762;2022-07-05T10:48:26;26.30;87.80
23703;DHT22;12030;50.376;8.762;2022-07-05T10:58:33;26.10;80.90
23703;DHT22;12030;50.376;8.762;2022-07-05T11:04:15;26.10;82.50
23703;DHT22;12030;50.376;8.762;2022-07-05T11:06:43;26.20;77.70
23703;DHT22;12030;50.376;8.762;2022-07-05T11:11:40;26.40;76.80
23703;DHT22;12030;50.376;8.762;2022-07-05T11:16:45;26.60;80.20
23703;DHT22;12030;50.376;8.762;2022-07-05T11:19:12;26.80;76.30
23703;DHT22;12030;50.376;8.762;2022-07-05T11:21:40;26.90;77.90
23703;DHT22;12030;50.376;8.762;2022-07-05T11:24:26;27.10;76.40
23703;DHT22;12030;50.376;8.762;2022-07-05T11:26:53;26.30;73.40
23703;DHT22;12030;50.376;8.762;2022-07-05T11:29:44;26.50;74.60
23703;DHT22;12030;50.376;8.762;2022-07-05T11:34:57;26.40;74.60
23703;DHT22;12030;50.376;8.762;2022-07-05T11:37:32;26.30;76.20
23703;DHT22;12030;50.376;8.762;2022-07-05T11:42:37;25.50;73.70
23703;DHT22;12030;50.376;8.762;2022-07-05T11:45:14;25.30;75.10
23703;DHT22;12030;50.376;8.762;2022-07-05T11:47:40;25.70;77.60
23703;DHT22;12030;50.376;8.762;2022-07-05T11:50:07;26.20;76.00
23703;DHT22;12030;50.376;8.762;2022-07-05T11:52:34;26.50;73.90
23703;DHT22;12030;50.376;8.762;2022-07-05T11:55:03;26.50;77.70
23703;DHT22;12030;50.376;8.762;2022-07-05T11:57:29;26.30;73.20
23703;DHT22;12030;50.376;8.762;2022-07-05T11:59:55;26.10;77.50
23703;DHT22;12030;50.376;8.762;2022-07-05T12:02:20;25.80;77.70
23703;DHT22;12030;50.376;8.762;2022-07-05T12:04:51;25.50;80.60
23703;DHT22;12030;50.376;8.762;2022-07-05T12:07:34;25.40;77.30
23703;DHT22;12030;50.376;8.762;2022-07-05T12:10:01;25.40;74.20
23703;DHT22;12030;50.376;8.762;2022-07-05T12:12:46;26.10;71.60
23703;DHT22;12030;50.376;8.762;2022-07-05T12:15:20;26.30;73.30
23703;DHT22;12030;50.376;8.762;2022-07-05T12:17:48;25.60;71.20
23703;DHT22;12030;50.376;8.762;2022-07-05T12:20:21;27.30;71.90
23703;DHT22;12030;50.376;8.762;2022-07-05T12:22:47;27.30;75.20
23703;DHT22;12030;50.376;8.762;2022-07-05T12:25:20;26.80;75.50
23703;DHT22;12030;50.376;8.762;2022-07-05T12:27:48;26.60;75.50
23703;DHT22;12030;50.376;8.762;2022-07-05T12:30:14;26.50;78.40
23703;DHT22;12030;50.376;8.762;2022-07-05T12:33:02;26.40;75.30
23703;DHT22;12030;50.376;8.762;2022-07-05T12:35:35;26.40;75.70
23703;DHT22;12030;50.376;8.762;2022-07-05T12:38:06;26.20;78.00
23703;DHT22;12030;50.376;8.762;2022-07-05T12:40:33;26.50;79.00
23703;DHT22;12030;50.376;8.762;2022-07-05T12:43:05;27.00;77.00
23703;DHT22;12030;50.376;8.762;2022-07-05T12:45:31;27.30;70.40
23703;DHT22;12030;50.376;8.762;2022-07-05T12:47:58;27.40;72.80
23703;DHT22;12030;50.376;8.762;2022-07-05T12:50:29;27.10;74.10
23703;DHT22;12030;50.376;8.762;2022-07-05T12:53:09;26.70;74.00
23703;DHT22;12030;50.376;8.762;2022-07-05T12:56:01;26.20;73.40
23703;DHT22;12030;50.376;8.762;2022-07-05T12:58:50;26.30;75.20
23703;DHT22;12030;50.376;8.762;2022-07-05T13:01:29;26.80;72.30
23703;DHT22;12030;50.376;8.762;2022-07-05T13:09:05;28.00;72.70
23703;DHT22;12030;50.376;8.762;2022-07-05T13:11:31;27.80;70.70
23703;DHT22;12030;50.376;8.762;2022-07-05T13:13:57;27.10;69.50
23703;DHT22;12030;50.376;8.762;2022-07-05T13:16:22;27.00;73.50
23703;DHT22;12030;50.376;8.762;2022-07-05T13:18:48;27.30;65.40
23703;DHT22;12030;50.376;8.762;2022-07-05T13:21:14;27.80;68.50
23703;DHT22;12030;50.376;8.762;2022-07-05T13:23:39;28.30;75.20
23703;DHT22;12030;50.376;8.762;2022-07-05T13:26:05;28.50;65.50
23703;DHT22;12030;50.376;8.762;2022-07-05T13:28:31;28.50;66.90
23703;DHT22;12030;50.376;8.762;2022-07-05T13:30:57;28.80;66.30
23703;DHT22;12030;50.376;8.762;2022-07-05T13:33:22;28.40;63.80
23703;DHT22;12030;50.376;8.762;2022-07-05T13:35:48;28.40;63.70
23703;DHT22;12030;50.376;8.762;2022-07-05T13:38:13;28.30;64.40
23703;DHT22;12030;50.376;8.762;2022-07-05T13:40:39;28.70;66.70
23703;DHT22;12030;50.376;8.762;2022-07-05T13:43:05;29.10;70.30
23703;DHT22;12030;50.376;8.762;2022-07-05T13:45:31;29.30;68.40
23703;DHT22;12030;50.376;8.762;2022-07-05T13:47:56;29.50;67.20
23703;DHT22;12030;50.376;8.762;2022-07-05T13:50:22;29.50;64.20
23703;DHT22;12030;50.376;8.762;2022-07-05T13:52:58;29.60;68.00
23703;DHT22;12030;50.376;8.762;2022-07-05T13:55:24;29.90;65.80
23703;DHT22;12030;50.376;8.762;2022-07-05T13:57:50;30.00;66.10
23703;DHT22;12030;50.376;8.762;2022-07-05T14:00:15;30.10;65.60
23703;DHT22;12030;50.376;8.762;2022-07-05T14:02:42;29.90;61.20
23703;DHT22;12030;50.376;8.762;2022-07-05T14:05:07;29.60;65.50
23703;DHT22;12030;50.376;8.762;2022-07-05T14:07:33;29.30;63.40
23703;DHT22;12030;50.376;8.762;2022-07-05T14:09:58;29.30;64.40
23703;DHT22;12030;50.376;8.762;2022-07-05T14:12:24;29.70;65.20
23703;DHT22;12030;50.376;8.762;2022-07-05T14:14:49;30.10;65.90
23703;DHT22;12030;50.376;8.762;2022-07-05T14:17:15;30.40;66.80
23703;DHT22;12030;50.376;8.762;2022-07-05T14:19:40;30.40;66.20
23703;DHT22;12030;50.376;8.762;2022-07-05T14:22:06;30.30;62.40
23703;DHT22;12030;50.376;8.762;2022-07-05T14:24:32;30.30;64.60
23703;DHT22;12030;50.376;8.762;2022-07-05T14:26:58;30.30;65.00
23703;DHT22;12030;50.376;8.762;2022-07-05T14:29:23;30.10;65.90
23703;DHT22;12030;50.376;8.762;2022-07-05T14:31:49;30.20;65.40
23703;DHT22;12030;50.376;8.762;2022-07-05T14:34:14;30.50;65.50
23703;DHT22;12030;50.376;8.762;2022-07-05T14:36:40;30.40;63.80
23703;DHT22;12030;50.376;8.762;2022-07-05T14:39:05;30.00;62.40
23703;DHT22;12030;50.376;8.762;2022-07-05T14:41:31;29.60;62.20
23703;DHT22;12030;50.376;8.762;2022-07-05T14:43:57;29.00;62.90
23703;DHT22;12030;50.376;8.762;2022-07-05T14:46:22;28.50;65.10
23703;DHT22;12030;50.376;8.762;2022-07-05T14:48:48;28.40;66.50
23703;DHT22;12030;50.376;8.762;2022-07-05T14:51:14;28.70;65.70
23703;DHT22;12030;50.376;8.762;2022-07-05T14:53:39;28.20;63.30
23703;DHT22;12030;50.376;8.762;2022-07-05T14:56:08;28.80;64.60
23703;DHT22;12030;50.376;8.762;2022-07-05T14:58:33;29.10;69.00
23703;DHT22;12030;50.376;8.762;2022-07-05T15:00:59;29.20;66.10
23703;DHT22;12030;50.376;8.762;2022-07-05T15:03:25;29.50;66.90
23703;DHT22;12030;50.376;8.762;2022-07-05T15:05:51;29.80;68.00
23703;DHT22;12030;50.376;8.762;2022-07-05T15:08:18;29.90;63.20
23703;DHT22;12030;50.376;8.762;2022-07-05T15:10:45;29.80;66.50
23703;DHT22;12030;50.376;8.762;2022-07-05T15:13:11;29.70;63.40
23703;DHT22;12030;50.376;8.762;2022-07-05T15:15:37;29.70;64.50
23703;DHT22;12030;50.376;8.762;2022-07-05T15:18:03;29.90;68.00
23703;DHT22;12030;50.376;8.762;2022-07-05T15:20:29;30.00;65.00
23703;DHT22;12030;50.376;8.762;2022-07-05T15:22:54;30.10;66.10
23703;DHT22;12030;50.376;8.762;2022-07-05T15:25:20;30.10;64.20
23703;DHT22;12030;50.376;8.762;2022-07-05T15:27:46;30.30;67.10
23703;DHT22;12030;50.376;8.762;2022-07-05T15:30:12;29.70;62.60
23703;DHT22;12030;50.376;8.762;2022-07-05T15:32:40;29.80;65.90
23703;DHT22;12030;50.376;8.762;2022-07-05T15:35:06;29.10;66.00
23703;DHT22;12030;50.376;8.762;2022-07-05T15:37:32;28.40;67.20
23703;DHT22;12030;50.376;8.762;2022-07-05T15:39:57;28.00;68.50
23703;DHT22;12030;50.376;8.762;2022-07-05T15:42:24;27.50;70.10
23703;DHT22;12030;50.376;8.762;2022-07-05T15:44:50;27.10;70.20
23703;DHT22;12030;50.376;8.762;2022-07-05T15:47:16;27.10;71.20
23703;DHT22;12030;50.376;8.762;2022-07-05T15:49:42;27.30;69.90
23703;DHT22;12030;50.376;8.762;2022-07-05T15:52:08;25.90;68.70
23703;DHT22;12030;50.376;8.762;2022-07-05T15:54:34;27.30;69.80
23703;DHT22;12030;50.376;8.762;2022-07-05T15:57:00;27.30;71.30
23703;DHT22;12030;50.376;8.762;2022-07-05T15:59:26;27.30;68.90
23703;DHT22;12030;50.376;8.762;2022-07-05T16:01:51;27.40;69.10
23703;DHT22;12030;50.376;8.762;2022-07-05T16:04:17;27.80;67.90